createdAt,value
2018-04-02T00:00:46.162Z,0.00
2018-04-02T00:01:46.339Z,0.00
2018-04-02T00:02:46.515Z,0.00
2018-04-02T00:03:46.696Z,0.00
2018-04-02T00:04:46.878Z,0.00
2018-04-02T00:05:47.054Z,0.00
2018-04-02T00:06:47.231Z,0.00
2018-04-02T00:07:47.416Z,0.00
2018-04-02T00:08:47.588Z,0.00
2018-04-02T00:09:47.759Z,0.00
2018-04-02T00:10:47.938Z,0.00
2018-04-02T00:11:48.114Z,0.00
2018-04-02T00:12:48.293Z,0.00
2018-04-02T00:13:48.466Z,0.00
2018-04-02T00:14:48.638Z,0.00
2018-04-02T00:15:48.819Z,0.00
2018-04-02T00:16:49.000Z,0.00
2018-04-02T00:17:49.173Z,0.00
2018-04-02T00:18:49.354Z,0.00
2018-04-02T00:19:49.533Z,0.00
2018-04-02T00:20:49.721Z,0.00
2018-04-02T00:21:49.893Z,0.00
2018-04-02T00:22:50.067Z,0.00
2018-04-02T00:23:50.239Z,0.00
2018-04-02T00:24:50.420Z,0.00
2018-04-02T00:25:50.598Z,0.00
2018-04-02T00:26:50.774Z,0.00
2018-04-02T00:27:50.959Z,0.00
2018-04-02T00:28:51.147Z,0.00
2018-04-02T00:29:51.330Z,0.00
2018-04-02T00:30:51.500Z,0.00
2018-04-02T00:31:51.682Z,0.00
2018-04-02T00:32:51.867Z,0.00
2018-04-02T00:33:52.040Z,0.00
2018-04-02T00:34:52.219Z,0.00
2018-04-02T00:35:52.392Z,0.00
2018-04-02T00:36:52.578Z,0.00
2018-04-02T00:37:52.753Z,0.00
2018-04-02T00:38:52.928Z,0.00
2018-04-02T00:39:53.102Z,0.00
2018-04-02T00:40:53.287Z,0.00
2018-04-02T00:41:53.468Z,0.00
2018-04-02T00:42:53.642Z,0.00
2018-04-02T00:43:53.820Z,0.00
2018-04-02T00:44:54.629Z,0.00
2018-04-02T00:45:54.189Z,0.00
2018-04-02T00:46:54.354Z,0.00
2018-04-02T00:47:54.530Z,0.00
2018-04-02T00:48:54.713Z,0.00
2018-04-02T00:49:54.890Z,0.00
2018-04-02T00:50:55.065Z,0.00
2018-04-02T00:51:55.248Z,0.00
2018-04-02T00:52:55.440Z,0.00
2018-04-02T00:53:55.617Z,0.00
2018-04-02T00:54:55.843Z,0.00
2018-04-02T00:55:55.970Z,0.00
2018-04-02T00:56:56.157Z,0.00
2018-04-02T00:57:56.347Z,0.00
2018-04-02T00:58:56.526Z,0.00
2018-04-02T00:59:56.703Z,0.00
2018-04-02T01:00:56.882Z,0.00
2018-04-02T01:01:57.070Z,0.00
2018-04-02T01:02:57.249Z,0.00
2018-04-02T01:03:57.428Z,0.00
2018-04-02T01:04:57.617Z,0.00
2018-04-02T01:05:57.796Z,0.00
2018-04-02T01:06:57.970Z,0.00
2018-04-02T01:07:58.171Z,0.00
2018-04-02T01:08:58.342Z,0.00
2018-04-02T01:09:58.529Z,0.00
2018-04-02T01:10:58.742Z,0.00
2018-04-02T01:11:58.889Z,0.00
2018-04-02T01:12:59.058Z,0.00
2018-04-02T01:13:59.238Z,0.00
2018-04-02T01:14:59.411Z,0.00
2018-04-02T01:15:59.594Z,0.00
2018-04-02T01:16:59.770Z,0.00
2018-04-02T01:17:59.947Z,0.00
2018-04-02T01:19:00.126Z,0.00
2018-04-02T01:20:00.310Z,0.00
2018-04-02T01:21:00.488Z,0.00
2018-04-02T01:22:00.666Z,0.00
2018-04-02T01:23:00.843Z,0.00
2018-04-02T01:24:01.020Z,0.00
2018-04-02T01:25:01.193Z,0.00
2018-04-02T01:26:01.375Z,0.00
2018-04-02T01:27:03.255Z,0.00
2018-04-02T01:28:01.761Z,0.00
2018-04-02T01:29:01.938Z,0.00
2018-04-02T01:30:02.123Z,0.00
2018-04-02T01:31:02.309Z,0.00
2018-04-02T01:32:02.481Z,0.00
2018-04-02T01:33:02.656Z,0.00
2018-04-02T01:34:02.833Z,0.00
2018-04-02T01:35:03.034Z,0.00
2018-04-02T01:36:03.184Z,0.00
2018-04-02T01:37:04.075Z,0.00
2018-04-02T01:38:03.498Z,0.00
2018-04-02T01:39:03.675Z,0.00
2018-04-02T01:40:03.854Z,0.00
2018-04-02T01:41:07.178Z,0.00
2018-04-02T01:42:04.256Z,0.00
2018-04-02T01:43:04.440Z,0.00
2018-04-02T01:44:04.612Z,0.00
2018-04-02T01:45:04.791Z,0.00
2018-04-02T01:46:04.969Z,0.00
2018-04-02T01:47:05.151Z,0.00
2018-04-02T01:48:05.334Z,0.00
2018-04-02T01:49:05.506Z,0.00
2018-04-02T01:50:05.708Z,0.00
2018-04-02T01:51:05.866Z,0.00
2018-04-02T01:52:06.053Z,0.00
2018-04-02T01:53:06.229Z,0.00
2018-04-02T01:54:06.402Z,0.00
2018-04-02T01:55:06.583Z,0.00
2018-04-02T01:56:06.763Z,0.00
2018-04-02T01:57:06.938Z,0.00
2018-04-02T01:58:07.110Z,0.00
2018-04-02T01:59:07.293Z,0.00
2018-04-02T02:00:07.468Z,0.00
2018-04-02T02:01:07.645Z,0.00
2018-04-02T02:02:07.826Z,0.00
2018-04-02T02:03:08.003Z,0.00
2018-04-02T02:04:08.185Z,0.00
2018-04-02T02:05:08.363Z,0.00
2018-04-02T02:06:08.543Z,0.00
2018-04-02T02:07:08.714Z,0.00
2018-04-02T02:08:08.892Z,0.00
2018-04-02T02:09:09.069Z,0.00
2018-04-02T02:10:09.250Z,0.00
2018-04-02T02:11:09.430Z,0.00
2018-04-02T02:12:09.616Z,0.00
2018-04-02T02:13:09.787Z,0.00
2018-04-02T02:14:09.964Z,0.00
2018-04-02T02:15:10.144Z,0.00
2018-04-02T02:16:10.331Z,0.00
2018-04-02T02:17:10.507Z,0.00
2018-04-02T02:18:10.680Z,0.00
2018-04-02T02:19:10.852Z,0.00
2018-04-02T02:20:11.030Z,0.00
2018-04-02T02:21:11.207Z,0.00
2018-04-02T02:22:11.384Z,0.00
2018-04-02T02:23:11.560Z,0.00
2018-04-02T02:24:11.742Z,0.00
2018-04-02T02:25:11.912Z,0.00
2018-04-02T02:26:12.105Z,0.00
2018-04-02T02:27:12.277Z,0.00
2018-04-02T02:28:12.455Z,0.00
2018-04-02T02:29:12.651Z,0.00
2018-04-02T02:30:12.836Z,0.00
2018-04-02T02:31:13.016Z,0.00
2018-04-02T02:32:13.184Z,0.00
2018-04-02T02:33:13.380Z,0.00
2018-04-02T02:34:13.542Z,0.00
2018-04-02T02:35:13.718Z,0.00
2018-04-02T02:36:13.895Z,0.00
2018-04-02T02:37:14.074Z,0.00
2018-04-02T02:38:14.256Z,0.00
2018-04-02T02:39:14.428Z,0.00
2018-04-02T02:40:14.617Z,0.00
2018-04-02T02:41:14.786Z,0.00
2018-04-02T02:42:14.960Z,0.00
2018-04-02T02:43:15.134Z,0.00
2018-04-02T02:44:15.318Z,0.00
2018-04-02T02:45:15.504Z,0.00
2018-04-02T02:46:15.687Z,0.00
2018-04-02T02:47:15.873Z,0.00
2018-04-02T02:48:16.044Z,0.00
2018-04-02T02:49:16.218Z,0.00
2018-04-02T02:50:16.398Z,0.00
2018-04-02T02:51:16.588Z,0.00
2018-04-02T02:52:16.768Z,0.00
2018-04-02T02:53:16.941Z,0.00
2018-04-02T02:54:17.124Z,0.00
2018-04-02T02:55:17.305Z,0.00
2018-04-02T02:56:17.478Z,0.00
2018-04-02T02:57:17.660Z,0.00
2018-04-02T02:58:17.839Z,0.00
2018-04-02T02:59:18.013Z,0.00
2018-04-02T03:00:18.196Z,0.00
2018-04-02T03:01:18.376Z,0.00
2018-04-02T03:02:18.556Z,0.00
2018-04-02T03:03:18.737Z,0.00
2018-04-02T03:04:18.917Z,0.00
2018-04-02T03:05:19.097Z,0.00
2018-04-02T03:06:19.273Z,0.00
2018-04-02T03:07:19.452Z,0.00
2018-04-02T03:08:19.638Z,0.00
2018-04-02T03:09:19.814Z,0.00
2018-04-02T03:10:19.995Z,0.00
2018-04-02T03:11:20.169Z,0.00
2018-04-02T03:12:20.350Z,0.00
2018-04-02T03:13:20.525Z,0.00
2018-04-02T03:14:20.703Z,0.00
2018-04-02T03:15:20.879Z,0.00
2018-04-02T03:16:21.059Z,0.00
2018-04-02T03:17:21.230Z,0.00
2018-04-02T03:18:21.406Z,0.00
2018-04-02T03:19:21.583Z,0.00
2018-04-02T03:20:21.758Z,0.00
2018-04-02T03:21:21.929Z,0.00
2018-04-02T03:22:22.110Z,0.00
2018-04-02T03:23:22.292Z,0.00
2018-04-02T03:24:22.472Z,0.00
2018-04-02T03:25:22.647Z,0.00
2018-04-02T03:26:22.826Z,0.00
2018-04-02T03:27:23.013Z,0.00
2018-04-02T03:28:23.191Z,0.00
2018-04-02T03:29:23.369Z,0.00
2018-04-02T03:30:23.551Z,0.00
2018-04-02T03:31:23.731Z,0.00
2018-04-02T03:32:23.910Z,0.00
2018-04-02T03:33:24.091Z,0.00
2018-04-02T03:34:24.277Z,0.00
2018-04-02T03:35:24.450Z,0.00
2018-04-02T03:36:24.628Z,0.00
2018-04-02T03:37:24.802Z,0.00
2018-04-02T03:38:24.978Z,0.00
2018-04-02T03:39:25.159Z,0.00
2018-04-02T03:40:25.338Z,0.00
2018-04-02T03:41:25.514Z,0.00
2018-04-02T03:42:25.691Z,0.00
2018-04-02T03:43:25.874Z,0.00
2018-04-02T03:44:26.047Z,0.00
2018-04-02T03:45:26.224Z,0.00
2018-04-02T03:46:26.406Z,0.00
2018-04-02T03:47:26.591Z,0.00
2018-04-02T03:48:26.768Z,0.00
2018-04-02T03:49:26.945Z,0.00
2018-04-02T03:50:27.130Z,0.00
2018-04-02T03:51:27.311Z,0.00
2018-04-02T03:52:27.497Z,0.00
2018-04-02T03:53:27.678Z,0.00
2018-04-02T03:54:27.859Z,0.00
2018-04-02T03:55:28.036Z,0.00
2018-04-02T03:56:28.221Z,0.00
2018-04-02T03:57:28.400Z,0.00
2018-04-02T03:58:28.574Z,0.00
2018-04-02T03:59:28.755Z,0.00
2018-04-02T04:00:28.928Z,0.00
2018-04-02T04:01:29.109Z,0.00
2018-04-02T04:02:29.289Z,0.00
2018-04-02T04:03:29.470Z,0.00
2018-04-02T04:04:29.651Z,0.00
2018-04-02T04:05:29.830Z,0.00
2018-04-02T04:06:30.009Z,0.00
2018-04-02T04:07:30.189Z,0.00
2018-04-02T04:08:30.375Z,0.00
2018-04-02T04:09:30.554Z,0.00
2018-04-02T04:10:30.727Z,0.00
2018-04-02T04:11:30.907Z,0.00
2018-04-02T04:12:31.082Z,0.00
2018-04-02T04:13:31.889Z,0.00
2018-04-02T04:14:31.441Z,0.00
2018-04-02T04:15:31.622Z,0.00
2018-04-02T04:16:31.799Z,0.00
2018-04-02T04:17:31.978Z,0.00
2018-04-02T04:18:32.152Z,0.00
2018-04-02T04:19:32.337Z,0.00
2018-04-02T04:20:32.512Z,0.00
2018-04-02T04:21:32.691Z,0.00
2018-04-02T04:22:32.866Z,0.00
2018-04-02T04:23:33.038Z,0.00
2018-04-02T04:24:33.217Z,0.00
2018-04-02T04:25:33.396Z,0.00
2018-04-02T04:26:33.574Z,0.00
2018-04-02T04:27:33.757Z,4.00
2018-04-02T04:28:33.928Z,4.00
2018-04-02T04:29:34.104Z,0.00
2018-04-02T04:30:34.277Z,4.00
2018-04-02T04:31:34.476Z,0.00
2018-04-02T04:32:34.650Z,4.00
2018-04-02T04:33:34.830Z,4.00
2018-04-02T04:34:35.009Z,4.00
2018-04-02T04:35:35.194Z,4.00
2018-04-02T04:36:35.379Z,8.00
2018-04-02T04:37:35.558Z,8.00
2018-04-02T04:38:35.736Z,12.00
2018-04-02T04:39:35.911Z,16.00
2018-04-02T04:40:36.083Z,20.00
2018-04-02T04:41:36.256Z,24.00
2018-04-02T04:42:36.438Z,28.00
2018-04-02T04:43:36.634Z,36.00
2018-04-02T04:44:36.799Z,44.00
2018-04-02T04:45:36.972Z,48.00
2018-04-02T04:46:37.154Z,60.00
2018-04-02T04:47:37.334Z,72.00
2018-04-02T04:48:37.508Z,84.00
2018-04-02T04:49:37.696Z,92.00
2018-04-02T04:50:37.879Z,108.00
2018-04-02T04:51:38.111Z,128.00
2018-04-02T04:52:38.233Z,144.00
2018-04-02T04:53:38.410Z,160.00
2018-04-02T04:54:38.591Z,180.00
2018-04-02T04:55:38.765Z,200.00
2018-04-02T04:56:38.940Z,216.00
2018-04-02T04:57:39.116Z,232.00
2018-04-02T04:58:39.287Z,244.00
2018-04-02T04:59:39.460Z,268.00
2018-04-02T05:00:39.639Z,288.00
2018-04-02T05:01:39.816Z,316.00
2018-04-02T05:02:39.995Z,344.00
2018-04-02T05:03:40.171Z,376.00
2018-04-02T05:04:40.352Z,392.00
2018-04-02T05:05:40.528Z,416.00
2018-04-02T05:06:40.709Z,444.00
2018-04-02T05:07:40.887Z,484.00
2018-04-02T05:08:41.069Z,524.00
2018-04-02T05:09:41.251Z,564.00
2018-04-02T05:10:41.440Z,608.00
2018-04-02T05:11:41.624Z,656.00
2018-04-02T05:12:41.805Z,696.00
2018-04-02T05:13:41.977Z,728.00
2018-04-02T05:14:42.158Z,760.00
2018-04-02T05:15:42.338Z,804.00
2018-04-02T05:16:42.519Z,840.00
2018-04-02T05:17:42.757Z,860.00
2018-04-02T05:18:42.805Z,852.00
2018-04-02T05:19:42.979Z,824.00
2018-04-02T05:20:43.166Z,824.00
2018-04-02T05:21:43.343Z,832.00
2018-04-02T05:22:43.536Z,844.00
2018-04-02T05:23:43.706Z,888.00
2018-04-02T05:24:43.895Z,936.00
2018-04-02T05:25:44.072Z,1004.00
2018-04-02T05:26:44.239Z,1028.00
2018-04-02T05:27:44.415Z,992.00
2018-04-02T05:28:44.591Z,988.00
2018-04-02T05:29:44.765Z,996.00
2018-04-02T05:30:44.940Z,988.00
2018-04-02T05:31:45.117Z,988.00
2018-04-02T05:32:45.302Z,1000.00
2018-04-02T05:33:45.474Z,1036.00
2018-04-02T05:34:45.657Z,1128.00
2018-04-02T05:35:45.840Z,1236.00
2018-04-02T05:36:46.017Z,1328.00
2018-04-02T05:37:46.195Z,1412.00
2018-04-02T05:38:46.384Z,1468.00
2018-04-02T05:39:46.602Z,1512.00
2018-04-02T05:40:47.061Z,1592.00
2018-04-02T05:41:46.871Z,1668.00
2018-04-02T05:42:47.050Z,1724.00
2018-04-02T05:43:47.221Z,1700.00
2018-04-02T05:44:47.409Z,1732.00
2018-04-02T05:45:47.595Z,1888.00
2018-04-02T05:46:47.786Z,1924.00
2018-04-02T05:47:47.965Z,1944.00
2018-04-02T05:48:48.136Z,2040.00
2018-04-02T05:49:48.313Z,2100.00
2018-04-02T05:50:48.495Z,2020.00
2018-04-02T05:51:48.671Z,1968.00
2018-04-02T05:52:48.852Z,2032.00
2018-04-02T05:53:49.022Z,2116.00
2018-04-02T05:54:49.201Z,2224.00
2018-04-02T05:55:49.380Z,2216.00
2018-04-02T05:56:49.556Z,2244.00
2018-04-02T05:57:49.730Z,2488.00
2018-04-02T05:58:49.907Z,2608.00
2018-04-02T05:59:50.090Z,2644.00
2018-04-02T06:00:50.277Z,2752.00
2018-04-02T06:01:50.454Z,2856.00
2018-04-02T06:02:55.208Z,2832.00
2018-04-02T06:03:50.791Z,2796.00
2018-04-02T06:04:50.974Z,2928.00
2018-04-02T06:05:51.149Z,3100.00
2018-04-02T06:06:51.328Z,3180.00
2018-04-02T06:07:51.514Z,3192.00
2018-04-02T06:08:51.728Z,3208.00
2018-04-02T06:09:51.884Z,3284.00
2018-04-02T06:10:52.063Z,3412.00
2018-04-02T06:11:52.236Z,3476.00
2018-04-02T06:12:52.416Z,3516.00
2018-04-02T06:13:52.601Z,3452.00
2018-04-02T06:14:52.794Z,3480.00
2018-04-02T06:15:52.967Z,3432.00
2018-04-02T06:16:53.140Z,3280.00
2018-04-02T06:17:53.316Z,3412.00
2018-04-02T06:18:53.491Z,3808.00
2018-04-02T06:19:53.670Z,4300.00
2018-04-02T06:20:53.853Z,4688.00
2018-04-02T06:21:54.026Z,5004.00
2018-04-02T06:22:54.200Z,5384.00
2018-04-02T06:23:54.377Z,5652.00
2018-04-02T06:24:54.555Z,5392.00
2018-04-02T06:25:54.739Z,5676.00
2018-04-02T06:26:54.921Z,6828.00
2018-04-02T06:27:55.094Z,7888.00
2018-04-02T06:28:55.273Z,7496.00
2018-04-02T06:29:55.447Z,7924.00
2018-04-02T06:30:55.637Z,8560.00
2018-04-02T06:31:55.803Z,8188.00
2018-04-02T06:32:55.985Z,8164.00
2018-04-02T06:33:56.191Z,9108.00
2018-04-02T06:34:56.364Z,10472.00
2018-04-02T06:35:56.540Z,14784.00
2018-04-02T06:36:56.769Z,13044.00
2018-04-02T06:37:56.925Z,11172.00
2018-04-02T06:38:59.185Z,10552.00
2018-04-02T06:39:59.430Z,10024.00
2018-04-02T06:40:59.704Z,11084.00
2018-04-02T06:42:02.443Z,11836.00
2018-04-02T06:42:59.574Z,12532.00
2018-04-02T06:43:57.871Z,13812.00
2018-04-02T06:44:58.767Z,13780.00
2018-04-02T06:45:59.510Z,15220.00
2018-04-02T06:46:59.117Z,19104.00
2018-04-02T06:47:59.944Z,12588.00
2018-04-02T06:48:59.219Z,12756.00
2018-04-02T06:49:58.956Z,12392.00
2018-04-02T06:50:59.014Z,11828.00
2018-04-02T06:51:59.691Z,12280.00
2018-04-02T06:52:59.386Z,16192.00
2018-04-02T06:53:59.893Z,16800.00
2018-04-02T06:54:59.825Z,25472.00
2018-04-02T06:56:03.712Z,13644.00
2018-04-02T06:57:00.054Z,13560.00
2018-04-02T06:58:00.231Z,14716.00
2018-04-02T06:59:00.410Z,14344.00
2018-04-02T07:00:00.602Z,16288.00
2018-04-02T07:01:00.773Z,20448.00
2018-04-02T07:02:00.967Z,19328.00
2018-04-02T07:03:01.154Z,19072.00
2018-04-02T07:04:01.427Z,18304.00
2018-04-02T07:05:01.451Z,26720.00
2018-04-02T07:06:01.630Z,21088.00
2018-04-02T07:07:01.810Z,27488.00
2018-04-02T07:08:01.989Z,31520.00
2018-04-02T07:09:02.182Z,45344.00
2018-04-02T07:10:02.376Z,33888.00
2018-04-02T07:11:02.571Z,32416.00
2018-04-02T07:12:02.836Z,33504.00
2018-04-02T07:13:02.910Z,30208.00
2018-04-02T07:14:03.114Z,32768.00
2018-04-02T07:15:03.334Z,29376.00
2018-04-02T07:16:03.524Z,33376.00
2018-04-02T07:17:03.732Z,27200.00
2018-04-02T07:18:03.998Z,26208.00
2018-04-02T07:19:04.032Z,22688.00
2018-04-02T07:20:04.215Z,29184.00
2018-04-02T07:21:04.536Z,16416.00
2018-04-02T07:22:04.593Z,14932.00
2018-04-02T07:23:04.811Z,15304.00
2018-04-02T07:24:04.958Z,16448.00
2018-04-02T07:25:05.159Z,13956.00
2018-04-02T07:26:05.331Z,13172.00
2018-04-02T07:27:05.755Z,13676.00
2018-04-02T07:28:05.660Z,13240.00
2018-04-02T07:29:05.843Z,12744.00
2018-04-02T07:30:06.041Z,14660.00
2018-04-02T07:31:06.235Z,13416.00
2018-04-02T07:32:06.403Z,19232.00
2018-04-02T07:33:07.415Z,15432.00
2018-04-02T07:34:06.769Z,15456.00
2018-04-02T07:35:06.948Z,13076.00
2018-04-02T07:36:07.169Z,12724.00
2018-04-02T07:37:07.231Z,13196.00
2018-04-02T07:38:07.407Z,14572.00
2018-04-02T07:39:07.684Z,24672.00
2018-04-02T07:40:08.213Z,18112.00
2018-04-02T07:41:08.016Z,19360.00
2018-04-02T07:42:08.085Z,23296.00
2018-04-02T07:43:08.298Z,36192.00
2018-04-02T07:44:08.542Z,66624.00
2018-04-02T07:45:08.630Z,61120.00
2018-04-02T07:46:08.802Z,82112.00
2018-04-02T07:47:09.008Z,79872.00
2018-04-02T07:48:09.178Z,84032.00
2018-04-02T07:49:09.361Z,86240.00
2018-04-02T07:50:09.551Z,85536.00
2018-04-02T07:51:09.750Z,84800.00
2018-04-02T07:52:09.943Z,86112.00
2018-04-02T07:53:10.132Z,80608.00
2018-04-02T07:54:10.348Z,80864.00
2018-04-02T07:55:10.528Z,82240.00
2018-04-02T07:56:10.766Z,72000.00
2018-04-02T07:57:11.164Z,83520.00
2018-04-02T07:58:11.689Z,89248.00
2018-04-02T07:59:11.227Z,92160.00
2018-04-02T08:00:11.428Z,93440.00
2018-04-02T08:01:11.611Z,69088.00
2018-04-02T08:02:11.798Z,65856.00
2018-04-02T08:03:13.022Z,55808.00
2018-04-02T08:04:12.211Z,65504.00
2018-04-02T08:05:12.406Z,57984.00
2018-04-02T08:06:12.664Z,59648.00
2018-04-02T08:07:12.720Z,54848.00
2018-04-02T08:08:12.911Z,63136.00
2018-04-02T08:09:13.235Z,47712.00
2018-04-02T08:10:13.410Z,41440.00
2018-04-02T08:11:13.469Z,42464.00
2018-04-02T08:12:13.655Z,47328.00
2018-04-02T08:13:13.842Z,50976.00
2018-04-02T08:14:14.918Z,49152.00
2018-04-02T08:15:14.493Z,54144.00
2018-04-02T08:16:14.352Z,73152.00
2018-04-02T08:17:15.108Z,70944.00
2018-04-02T08:18:15.256Z,66080.00
2018-04-02T08:19:15.614Z,59680.00
2018-04-02T08:20:16.291Z,62688.00
2018-04-02T08:21:15.294Z,60192.00
2018-04-02T08:22:16.925Z,65824.00
2018-04-02T08:23:15.568Z,67232.00
2018-04-02T08:24:15.755Z,58464.00
2018-04-02T08:25:16.018Z,65824.00
2018-04-02T08:26:16.104Z,72992.00
2018-04-02T08:27:16.461Z,56192.00
2018-04-02T08:28:16.856Z,60832.00
2018-04-02T08:29:16.989Z,59840.00
2018-04-02T08:30:17.145Z,58592.00
2018-04-02T08:31:16.993Z,62880.00
2018-04-02T08:32:17.194Z,48928.00
2018-04-02T08:33:17.381Z,44608.00
2018-04-02T08:34:17.572Z,39904.00
2018-04-02T08:35:17.752Z,40352.00
2018-04-02T08:36:17.943Z,41952.00
2018-04-02T08:37:18.147Z,50016.00
2018-04-02T08:38:18.358Z,50432.00
2018-04-02T08:39:18.561Z,44064.00
2018-04-02T08:40:18.802Z,40352.00
2018-04-02T08:41:19.156Z,42080.00
2018-04-02T08:42:19.104Z,41472.00
2018-04-02T08:43:19.289Z,36064.00
2018-04-02T08:44:19.724Z,34496.00
2018-04-02T08:45:19.944Z,31744.00
2018-04-02T08:46:19.880Z,30944.00
2018-04-02T08:47:20.671Z,31200.00
2018-04-02T08:48:20.458Z,31648.00
2018-04-02T08:49:20.843Z,34944.00
2018-04-02T08:50:20.534Z,33824.00
2018-04-02T08:51:20.758Z,34176.00
2018-04-02T08:52:20.953Z,34912.00
2018-04-02T08:53:21.144Z,31904.00
2018-04-02T08:54:21.341Z,30272.00
2018-04-02T08:55:22.143Z,31392.00
2018-04-02T08:56:21.962Z,36096.00
2018-04-02T08:57:23.197Z,31680.00
2018-04-02T08:58:22.242Z,31424.00
2018-04-02T08:59:22.554Z,29760.00
2018-04-02T09:00:23.441Z,27040.00
2018-04-02T09:01:22.575Z,26752.00
2018-04-02T09:02:22.762Z,26688.00
2018-04-02T09:03:23.455Z,26080.00
2018-04-02T09:04:24.087Z,23840.00
2018-04-02T09:05:24.921Z,23328.00
2018-04-02T09:06:24.326Z,22592.00
2018-04-02T09:07:24.686Z,24928.00
2018-04-02T09:08:24.528Z,23648.00
2018-04-02T09:09:25.962Z,23008.00
2018-04-02T09:10:25.355Z,22496.00
2018-04-02T09:11:25.009Z,26784.00
2018-04-02T09:12:24.756Z,32000.00
2018-04-02T09:13:26.417Z,38976.00
2018-04-02T09:14:25.938Z,48672.00
2018-04-02T09:15:26.742Z,45216.00
2018-04-02T09:16:26.378Z,48448.00
2018-04-02T09:17:26.672Z,20960.00
2018-04-02T09:18:26.040Z,16544.00
2018-04-02T09:19:26.732Z,22592.00
2018-04-02T09:20:27.154Z,75520.00
2018-04-02T09:21:25.753Z,92928.00
2018-04-02T09:22:26.003Z,100320.00
2018-04-02T09:23:26.216Z,99008.00
2018-04-02T09:24:26.344Z,16708.00
2018-04-02T09:25:26.751Z,93536.00
2018-04-02T09:26:27.603Z,96736.00
2018-04-02T09:27:27.987Z,93248.00
2018-04-02T09:28:27.946Z,93888.00
2018-04-02T09:29:27.979Z,93536.00
2018-04-02T09:30:29.097Z,17824.00
2018-04-02T09:31:28.371Z,19328.00
2018-04-02T09:32:29.040Z,88384.00
2018-04-02T09:33:29.725Z,28128.00
2018-04-02T09:34:29.167Z,89920.00
2018-04-02T09:35:30.928Z,86336.00
2018-04-02T09:36:28.774Z,59232.00
2018-04-02T09:37:28.684Z,87488.00
2018-04-02T09:38:29.015Z,82880.00
2018-04-02T09:39:29.200Z,59264.00
2018-04-02T09:40:29.357Z,62944.00
2018-04-02T09:41:29.428Z,82784.00
2018-04-02T09:42:29.496Z,83200.00
2018-04-02T09:43:29.890Z,19040.00
2018-04-02T09:44:29.738Z,12616.00
2018-04-02T09:45:29.940Z,11444.00
2018-04-02T09:46:30.123Z,11280.00
2018-04-02T09:47:30.320Z,11472.00
2018-04-02T09:48:30.507Z,12240.00
2018-04-02T09:49:30.975Z,13952.00
2018-04-02T09:50:30.985Z,78144.00
2018-04-02T09:51:30.997Z,85568.00
2018-04-02T09:52:31.211Z,37376.00
2018-04-02T09:53:31.398Z,64096.00
2018-04-02T09:54:31.575Z,86560.00
2018-04-02T09:55:31.768Z,90272.00
2018-04-02T09:56:32.816Z,69376.00
2018-04-02T09:57:32.070Z,22240.00
2018-04-02T09:58:32.269Z,18080.00
2018-04-02T09:59:32.528Z,21472.00
2018-04-02T10:00:32.669Z,79584.00
2018-04-02T10:01:32.856Z,82528.00
2018-04-02T10:02:33.042Z,24864.00
2018-04-02T10:03:33.259Z,76960.00
2018-04-02T10:04:33.447Z,73216.00
2018-04-02T10:05:33.624Z,91968.00
2018-04-02T10:06:33.829Z,38144.00
2018-04-02T10:07:35.879Z,16248.00
2018-04-02T10:08:35.715Z,13056.00
2018-04-02T10:09:36.941Z,11552.00
2018-04-02T10:10:34.663Z,9636.00
2018-04-02T10:11:35.596Z,9480.00
2018-04-02T10:12:35.782Z,8568.00
2018-04-02T10:13:38.550Z,8664.00
2018-04-02T10:14:35.225Z,8016.00
2018-04-02T10:15:35.483Z,7316.00
2018-04-02T10:16:35.771Z,6916.00
2018-04-02T10:17:35.999Z,6500.00
2018-04-02T10:18:35.860Z,6920.00
2018-04-02T10:19:36.253Z,7816.00
2018-04-02T10:20:36.232Z,11448.00
2018-04-02T10:21:36.588Z,12900.00
2018-04-02T10:22:36.566Z,19904.00
2018-04-02T10:23:36.790Z,39456.00
2018-04-02T10:24:36.865Z,45248.00
2018-04-02T10:25:39.162Z,67840.00
2018-04-02T10:26:38.666Z,66208.00
2018-04-02T10:27:39.155Z,72064.00
2018-04-02T10:28:39.420Z,58208.00
2018-04-02T10:29:39.349Z,51104.00
2018-04-02T10:30:39.681Z,57568.00
2018-04-02T10:31:39.448Z,51456.00
2018-04-02T10:32:39.735Z,19520.00
2018-04-02T10:33:40.217Z,17856.00
2018-04-02T10:34:41.648Z,16896.00
2018-04-02T10:35:39.155Z,32448.00
2018-04-02T10:36:39.309Z,39456.00
2018-04-02T10:37:39.408Z,59360.00
2018-04-02T10:38:39.656Z,61824.00
2018-04-02T10:39:39.727Z,47328.00
2018-04-02T10:40:39.971Z,15008.00
2018-04-02T10:41:40.258Z,13436.00
2018-04-02T10:42:40.367Z,14004.00
2018-04-02T10:43:42.046Z,15256.00
2018-04-02T10:44:40.664Z,16592.00
2018-04-02T10:45:40.618Z,17504.00
2018-04-02T10:46:40.797Z,17216.00
2018-04-02T10:47:40.984Z,19584.00
2018-04-02T10:48:41.216Z,19488.00
2018-04-02T10:49:41.386Z,22112.00
2018-04-02T10:50:41.542Z,82400.00
2018-04-02T10:51:41.731Z,80128.00
2018-04-02T10:52:41.925Z,81216.00
2018-04-02T10:53:42.103Z,81984.00
2018-04-02T10:54:42.512Z,17600.00
2018-04-02T10:55:42.471Z,15328.00
2018-04-02T10:56:42.658Z,14580.00
2018-04-02T10:57:42.843Z,13740.00
2018-04-02T10:58:43.030Z,14300.00
2018-04-02T10:59:43.246Z,15504.00
2018-04-02T11:00:43.393Z,16024.00
2018-04-02T11:01:43.741Z,17664.00
2018-04-02T11:02:43.716Z,17008.00
2018-04-02T11:03:43.869Z,16572.00
2018-04-02T11:04:44.056Z,16800.00
2018-04-02T11:05:44.251Z,16860.00
2018-04-02T11:06:44.448Z,16732.00
2018-04-02T11:07:44.650Z,17408.00
2018-04-02T11:08:44.852Z,18400.00
2018-04-02T11:09:45.042Z,43840.00
2018-04-02T11:10:45.220Z,17792.00
2018-04-02T11:11:45.409Z,16044.00
2018-04-02T11:12:45.594Z,16032.00
2018-04-02T11:13:45.781Z,16004.00
2018-04-02T11:14:45.964Z,16232.00
2018-04-02T11:15:46.154Z,15268.00
2018-04-02T11:16:46.344Z,14092.00
2018-04-02T11:17:46.564Z,14636.00
2018-04-02T11:18:46.749Z,13996.00
2018-04-02T11:19:46.949Z,13932.00
2018-04-02T11:20:47.121Z,16864.00
2018-04-02T11:21:47.302Z,14548.00
2018-04-02T11:22:47.496Z,15848.00
2018-04-02T11:23:47.703Z,18240.00
2018-04-02T11:24:47.868Z,16492.00
2018-04-02T11:25:48.037Z,15820.00
2018-04-02T11:26:48.226Z,15964.00
2018-04-02T11:27:48.407Z,15040.00
2018-04-02T11:28:48.596Z,14392.00
2018-04-02T11:29:48.777Z,14152.00
2018-04-02T11:30:48.968Z,15752.00
2018-04-02T11:31:49.193Z,19872.00
2018-04-02T11:32:49.262Z,19808.00
2018-04-02T11:33:49.449Z,17696.00
2018-04-02T11:34:49.650Z,16300.00
2018-04-02T11:35:49.853Z,15424.00
2018-04-02T11:36:50.006Z,17088.00
2018-04-02T11:37:50.191Z,15848.00
2018-04-02T11:38:50.378Z,15752.00
2018-04-02T11:39:50.557Z,14356.00
2018-04-02T11:40:50.739Z,14356.00
2018-04-02T11:41:50.917Z,16288.00
2018-04-02T11:42:51.118Z,16224.00
2018-04-02T11:43:51.290Z,16128.00
2018-04-02T11:44:51.489Z,15480.00
2018-04-02T11:45:51.667Z,14424.00
2018-04-02T11:46:51.852Z,13652.00
2018-04-02T11:47:52.044Z,13836.00
2018-04-02T11:48:52.239Z,13988.00
2018-04-02T11:49:52.422Z,14124.00
2018-04-02T11:50:52.609Z,14148.00
2018-04-02T11:51:52.791Z,14016.00
2018-04-02T11:52:52.982Z,14688.00
2018-04-02T11:53:53.247Z,14352.00
2018-04-02T11:54:53.306Z,14760.00
2018-04-02T11:55:53.480Z,15904.00
2018-04-02T11:56:53.790Z,15732.00
2018-04-02T11:57:53.850Z,16320.00
2018-04-02T11:58:54.047Z,15552.00
2018-04-02T11:59:54.266Z,15160.00
2018-04-02T12:00:54.358Z,15116.00
2018-04-02T12:01:54.547Z,14852.00
2018-04-02T12:02:54.748Z,14628.00
2018-04-02T12:03:54.966Z,14728.00
2018-04-02T12:04:55.171Z,14600.00
2018-04-02T12:05:55.311Z,13472.00
2018-04-02T12:06:55.496Z,13528.00
2018-04-02T12:07:55.683Z,13996.00
2018-04-02T12:08:55.864Z,14068.00
2018-04-02T12:09:56.053Z,13760.00
2018-04-02T12:10:56.250Z,13260.00
2018-04-02T12:11:56.435Z,12544.00
2018-04-02T12:12:56.787Z,12696.00
2018-04-02T12:13:56.856Z,13496.00
2018-04-02T12:14:57.038Z,14648.00
2018-04-02T12:15:57.216Z,15272.00
2018-04-02T12:16:57.417Z,16160.00
2018-04-02T12:17:57.591Z,16384.00
2018-04-02T12:18:57.777Z,15928.00
2018-04-02T12:19:57.965Z,16384.00
2018-04-02T12:20:58.188Z,16320.00
2018-04-02T12:21:58.327Z,15604.00
2018-04-02T12:22:58.510Z,15284.00
2018-04-02T12:23:58.694Z,16076.00
2018-04-02T12:24:58.880Z,16512.00